createdAt,value
2023-05-03T00:01:16.666Z,9.58
2023-05-03T00:03:45.917Z,9.54
2023-05-03T00:06:14.918Z,9.49
2023-05-03T00:08:43.072Z,9.47
2023-05-03T00:11:10.816Z,9.45
2023-05-03T00:13:37.966Z,9.45
2023-05-03T00:16:05.766Z,9.46
2023-05-03T00:18:33.459Z,9.48
2023-05-03T00:21:00.574Z,9.50
2023-05-03T00:23:28.584Z,9.47
2023-05-03T00:25:57.909Z,9.45
2023-05-03T00:28:26.501Z,9.41
2023-05-03T00:30:54.008Z,9.37
2023-05-03T00:33:21.946Z,9.36
2023-05-03T00:35:49.654Z,9.35
2023-05-03T00:38:16.894Z,9.27
2023-05-03T00:40:44.172Z,9.24
2023-05-03T00:43:13.458Z,9.26
2023-05-03T00:45:41.158Z,9.22
2023-05-03T00:48:09.006Z,9.21
2023-05-03T00:50:37.568Z,9.22
2023-05-03T00:53:05.108Z,9.16
2023-05-03T00:55:33.758Z,9.17
2023-05-03T00:58:01.302Z,9.14
2023-05-03T01:00:28.747Z,9.13
2023-05-03T01:02:56.232Z,9.16
2023-05-03T01:05:24.659Z,9.20
2023-05-03T01:08:18.628Z,9.25
2023-05-03T01:10:59.292Z,9.26
2023-05-03T01:13:43.079Z,9.30
2023-05-03T01:16:30.549Z,9.31
2023-05-03T01:19:02.185Z,9.29
2023-05-03T01:21:31.353Z,9.30
2023-05-03T01:24:14.188Z,9.27
2023-05-03T01:26:41.847Z,9.30
2023-05-03T01:29:09.259Z,9.28
2023-05-03T01:31:56.166Z,9.26
2023-05-03T01:34:33.779Z,9.20
2023-05-03T01:37:04.987Z,9.15
2023-05-03T01:39:42.975Z,9.09
2023-05-03T01:42:10.378Z,9.03
2023-05-03T01:44:40.106Z,9.03
2023-05-03T01:47:07.907Z,9.00
2023-05-03T01:49:35.451Z,8.95
2023-05-03T01:52:02.644Z,8.91
2023-05-03T01:54:30.452Z,8.90
2023-05-03T01:56:58.267Z,8.89
2023-05-03T01:59:26.031Z,8.86
2023-05-03T02:01:54.138Z,8.85
2023-05-03T02:04:21.483Z,8.80
2023-05-03T02:06:48.594Z,8.77
2023-05-03T02:09:15.821Z,8.74
2023-05-03T02:11:44.080Z,8.75
2023-05-03T02:14:12.276Z,8.73
2023-05-03T02:16:40.526Z,8.70
2023-05-03T02:19:08.898Z,8.65
2023-05-03T02:21:38.608Z,8.59
2023-05-03T02:24:06.205Z,8.53
2023-05-03T02:26:33.990Z,8.49
2023-05-03T02:29:01.980Z,8.44
2023-05-03T02:31:31.926Z,8.35
2023-05-03T02:33:59.770Z,8.29
2023-05-03T02:36:27.894Z,8.20
2023-05-03T02:38:55.467Z,8.17
2023-05-03T02:41:22.995Z,8.13
2023-05-03T02:43:51.129Z,8.09
2023-05-03T02:46:18.968Z,8.04
2023-05-03T02:48:46.567Z,8.08
2023-05-03T02:51:14.157Z,8.10
2023-05-03T02:53:41.436Z,8.10
2023-05-03T02:56:10.127Z,8.16
2023-05-03T02:58:37.416Z,8.28
2023-05-03T03:01:05.750Z,8.36
2023-05-03T03:03:33.089Z,8.44
2023-05-03T03:06:00.841Z,8.48
2023-05-03T03:08:28.558Z,8.52
2023-05-03T03:11:00.171Z,8.55
2023-05-03T03:13:27.950Z,8.59
2023-05-03T03:15:55.681Z,8.63
2023-05-03T03:18:22.925Z,8.70
2023-05-03T03:20:50.518Z,8.78
2023-05-03T03:23:19.893Z,8.85
2023-05-03T03:25:47.489Z,8.95
2023-05-03T03:28:16.598Z,9.09
2023-05-03T03:30:44.911Z,9.28
2023-05-03T03:33:24.326Z,9.49
2023-05-03T03:35:54.480Z,9.62
2023-05-03T03:38:26.611Z,9.80
2023-05-03T03:41:00.131Z,9.90
2023-05-03T03:43:27.843Z,10.00
2023-05-03T03:45:55.183Z,10.13
2023-05-03T03:48:23.173Z,10.33
2023-05-03T03:50:51.005Z,10.68
2023-05-03T03:53:20.729Z,11.09
2023-05-03T03:55:48.710Z,11.46
2023-05-03T03:58:18.156Z,11.85
2023-05-03T04:00:45.777Z,12.15
2023-05-03T04:03:17.599Z,12.42
2023-05-03T04:05:45.362Z,12.66
2023-05-03T04:08:12.772Z,12.94
2023-05-03T04:10:40.976Z,13.29
2023-05-03T04:13:09.208Z,13.71
2023-05-03T04:15:36.480Z,14.06
2023-05-03T04:18:05.948Z,14.29
2023-05-03T04:20:37.001Z,14.55
2023-05-03T04:23:06.294Z,14.71
2023-05-03T04:25:33.860Z,14.92
2023-05-03T04:28:10.495Z,15.01
2023-05-03T04:30:43.722Z,15.27
2023-05-03T04:33:11.670Z,15.38
2023-05-03T04:35:39.247Z,15.50
2023-05-03T04:38:10.087Z,15.54
2023-05-03T04:40:37.924Z,15.76
2023-05-03T04:43:08.700Z,15.79
2023-05-03T04:45:39.890Z,16.00
2023-05-03T04:48:10.485Z,16.26
2023-05-03T04:50:37.786Z,16.49
2023-05-03T04:53:08.206Z,16.79
2023-05-03T04:55:39.716Z,17.15
2023-05-03T04:58:07.674Z,17.52
2023-05-03T05:00:37.007Z,17.86
2023-05-03T05:03:10.273Z,18.13
2023-05-03T05:05:38.029Z,18.43
2023-05-03T05:08:06.235Z,18.65
2023-05-03T05:10:43.118Z,18.86
2023-05-03T05:13:14.932Z,19.06
2023-05-03T05:15:42.460Z,19.10
2023-05-03T05:18:12.183Z,19.29
2023-05-03T05:20:40.748Z,19.43
2023-05-03T05:23:09.073Z,19.39
2023-05-03T05:25:37.261Z,19.17
2023-05-03T05:28:05.236Z,19.32
2023-05-03T05:30:33.920Z,19.54
2023-05-03T05:33:02.441Z,19.69
2023-05-03T05:35:30.002Z,19.70
2023-05-03T05:37:57.800Z,19.95
2023-05-03T05:40:26.517Z,20.17
2023-05-03T05:42:56.588Z,19.86
2023-05-03T05:45:26.230Z,19.76
2023-05-03T05:47:54.685Z,19.80
2023-05-03T05:50:22.621Z,19.77
2023-05-03T05:52:56.342Z,19.51
2023-05-03T05:55:27.103Z,19.72
2023-05-03T05:57:56.284Z,19.53
2023-05-03T06:00:28.413Z,19.62
2023-05-03T06:02:56.109Z,19.88
2023-05-03T06:05:23.746Z,19.99
2023-05-03T06:07:51.271Z,20.10
2023-05-03T06:10:18.772Z,20.45
2023-05-03T06:12:51.334Z,20.27
2023-05-03T06:15:23.196Z,19.77
2023-05-03T06:17:50.588Z,19.38
2023-05-03T06:20:18.721Z,19.27
2023-05-03T06:22:47.881Z,19.66
2023-05-03T06:25:17.840Z,20.23
2023-05-03T06:27:50.361Z,20.76
2023-05-03T06:30:20.988Z,20.81
2023-05-03T06:32:50.030Z,20.74
2023-05-03T06:35:20.011Z,20.64
2023-05-03T06:37:48.285Z,20.83
2023-05-03T06:40:16.293Z,20.62
2023-05-03T06:42:44.075Z,20.54
2023-05-03T06:45:31.593Z,19.88
2023-05-03T06:47:59.537Z,19.53
2023-05-03T06:50:27.513Z,19.65
2023-05-03T06:52:55.222Z,20.00
2023-05-03T06:55:22.805Z,20.13
2023-05-03T06:57:52.591Z,20.35
2023-05-03T07:00:22.052Z,20.51
2023-05-03T07:02:49.917Z,20.56
2023-05-03T07:05:17.702Z,21.06
2023-05-03T07:07:45.168Z,21.29
2023-05-03T07:10:12.536Z,21.60
2023-05-03T07:12:39.684Z,21.67
2023-05-03T07:15:07.614Z,21.87
2023-05-03T07:17:35.052Z,21.85
2023-05-03T07:20:02.868Z,21.94
2023-05-03T07:22:30.310Z,22.15
2023-05-03T07:25:00.089Z,22.41
2023-05-03T07:27:27.800Z,22.59
2023-05-03T07:29:55.236Z,22.84
2023-05-03T07:32:22.917Z,23.14
2023-05-03T07:34:50.597Z,23.00
2023-05-03T07:37:18.035Z,23.08
2023-05-03T07:39:45.962Z,23.34
2023-05-03T07:42:13.443Z,22.96
2023-05-03T07:44:41.540Z,22.97
2023-05-03T07:47:08.980Z,23.00
2023-05-03T07:49:38.559Z,22.94
2023-05-03T07:52:06.489Z,22.79
2023-05-03T07:54:34.417Z,23.23
2023-05-03T07:57:04.234Z,23.31
2023-05-03T07:59:31.674Z,23.33
2023-05-03T08:02:01.338Z,23.35
2023-05-03T08:04:29.208Z,23.50
2023-05-03T08:06:57.033Z,23.51
2023-05-03T08:09:25.277Z,23.69
2023-05-03T08:11:52.599Z,23.72
2023-05-03T08:14:20.265Z,23.49
2023-05-03T08:16:48.100Z,24.21
2023-05-03T08:19:16.221Z,24.19
2023-05-03T08:21:43.698Z,24.24
2023-05-03T08:24:12.534Z,24.59
2023-05-03T08:26:42.130Z,24.51
2023-05-03T08:29:10.087Z,24.43
2023-05-03T08:31:37.755Z,24.45
2023-05-03T08:34:07.056Z,24.97
2023-05-03T08:36:36.189Z,25.05
2023-05-03T08:39:07.073Z,25.16
2023-05-03T08:41:35.014Z,25.64
2023-05-03T08:44:05.876Z,25.91
2023-05-03T08:46:37.376Z,25.78
2023-05-03T08:49:07.458Z,26.01
2023-05-03T08:51:36.270Z,25.82
2023-05-03T08:54:03.936Z,25.77
2023-05-03T08:56:44.198Z,25.92
2023-05-03T08:59:12.055Z,25.44
2023-05-03T09:01:41.542Z,25.90
2023-05-03T09:04:11.578Z,26.45
2023-05-03T09:06:39.640Z,27.14
2023-05-03T09:09:09.075Z,27.09
2023-05-03T09:11:39.352Z,27.51
2023-05-03T09:14:19.427Z,27.24
2023-05-03T09:16:47.715Z,27.12
2023-05-03T09:19:16.644Z,27.00
2023-05-03T09:21:47.403Z,27.36
2023-05-03T09:24:21.684Z,27.79
2023-05-03T09:26:51.387Z,27.90
2023-05-03T09:29:34.412Z,28.02
2023-05-03T09:32:05.986Z,28.74
2023-05-03T09:34:35.896Z,29.19
2023-05-03T09:37:03.636Z,28.93
2023-05-03T09:39:31.762Z,29.06
2023-05-03T09:41:59.465Z,29.31
2023-05-03T09:44:42.572Z,29.19
2023-05-03T09:47:11.017Z,29.13
2023-05-03T09:49:39.796Z,29.22
2023-05-03T09:52:09.160Z,29.36
2023-05-03T09:54:37.004Z,29.02
2023-05-03T09:57:06.585Z,29.80
2023-05-03T09:59:35.518Z,30.61
2023-05-03T10:02:06.403Z,30.53
2023-05-03T10:04:45.078Z,30.69
2023-05-03T10:07:17.890Z,31.04
2023-05-03T10:09:48.304Z,30.07
2023-05-03T10:12:21.669Z,29.33
2023-05-03T10:14:57.853Z,29.86
2023-05-03T10:17:46.185Z,30.26
2023-05-03T10:20:42.939Z,29.60
2023-05-03T10:23:14.779Z,28.91
2023-05-03T10:26:11.102Z,28.42
2023-05-03T10:28:39.589Z,27.96
2023-05-03T10:31:27.506Z,27.43
2023-05-03T10:33:55.977Z,27.55
2023-05-03T10:36:26.022Z,27.53
2023-05-03T10:38:57.801Z,28.16
2023-05-03T10:41:27.308Z,28.09
2023-05-03T10:43:55.159Z,28.58
2023-05-03T10:46:34.148Z,29.22
2023-05-03T10:49:26.851Z,29.47
2023-05-03T10:51:56.634Z,30.47
2023-05-03T10:54:25.233Z,31.23
2023-05-03T10:56:55.353Z,31.09
2023-05-03T10:59:24.746Z,31.31
2023-05-03T11:01:53.493Z,32.03
2023-05-03T11:04:35.148Z,32.77
2023-05-03T11:07:03.112Z,31.98
2023-05-03T11:09:32.615Z,32.39
2023-05-03T11:12:04.748Z,32.28
2023-05-03T11:14:32.093Z,32.62
2023-05-03T11:16:59.957Z,32.99
2023-05-03T11:19:27.979Z,33.06
2023-05-03T11:21:55.901Z,33.37
2023-05-03T11:24:23.719Z,33.68
2023-05-03T11:26:51.746Z,34.17
2023-05-03T11:29:21.370Z,34.63
2023-05-03T11:31:48.947Z,34.90
2023-05-03T11:34:16.604Z,35.06
2023-05-03T11:36:44.689Z,35.18
2023-05-03T11:39:15.043Z,35.91
2023-05-03T11:41:42.790Z,35.07
2023-05-03T11:44:17.084Z,35.60
2023-05-03T11:46:47.125Z,35.56
2023-05-03T11:49:19.533Z,35.60
2023-05-03T11:51:51.660Z,35.33
2023-05-03T11:54:26.375Z,35.33
2023-05-03T11:56:59.987Z,35.54
2023-05-03T11:59:41.492Z,35.66
2023-05-03T12:02:14.965Z,35.69
2023-05-03T12:04:48.205Z,35.80
2023-05-03T12:07:19.414Z,35.68
2023-05-03T12:10:00.734Z,35.43
2023-05-03T12:12:40.891Z,35.41
2023-05-03T12:15:11.624Z,35.19
2023-05-03T12:17:44.388Z,34.90
2023-05-03T12:22:57.247Z,34.49
2023-05-03T12:25:29.146Z,34.51
2023-05-03T12:28:18.694Z,34.27
2023-05-03T12:30:47.935Z,34.30
2023-05-03T12:33:21.823Z,34.48
2023-05-03T12:35:52.739Z,34.54
2023-05-03T12:38:23.887Z,34.50
2023-05-03T12:40:53.961Z,34.47
2023-05-03T12:43:22.145Z,34.50
2023-05-03T12:46:00.697Z,34.32
2023-05-03T12:48:38.204Z,33.88
2023-05-03T12:53:38.854Z,33.28
2023-05-03T12:56:07.610Z,33.09
2023-05-03T13:03:44.301Z,32.69
2023-05-03T13:06:14.442Z,32.61
2023-05-03T13:11:13.391Z,32.64
2023-05-03T13:13:41.482Z,32.49
2023-05-03T13:16:09.650Z,32.00
2023-05-03T13:18:37.449Z,31.91
2023-05-03T13:21:05.569Z,31.72
2023-05-03T13:23:34.173Z,31.60
2023-05-03T13:26:01.855Z,31.56
2023-05-03T13:28:29.194Z,31.35
2023-05-03T13:30:57.553Z,31.20
2023-05-03T13:33:26.224Z,31.12
2023-05-03T13:35:54.909Z,30.80
2023-05-03T13:38:22.658Z,30.86
2023-05-03T13:40:50.730Z,30.78
2023-05-03T13:43:17.872Z,30.61
2023-05-03T13:45:45.517Z,30.44
2023-05-03T13:48:18.507Z,30.18
2023-05-03T13:50:47.202Z,29.92
2023-05-03T13:53:15.308Z,29.59
2023-05-03T13:55:42.531Z,29.40
2023-05-03T13:58:11.481Z,29.11
2023-05-03T14:00:39.071Z,28.95
2023-05-03T14:03:07.949Z,28.80
2023-05-03T14:05:36.130Z,28.61
2023-05-03T14:08:03.534Z,28.50
2023-05-03T14:10:35.973Z,28.25
2023-05-03T14:13:04.075Z,27.92
2023-05-03T14:15:32.167Z,27.83
2023-05-03T14:18:03.027Z,27.76
2023-05-03T14:20:34.316Z,27.67
2023-05-03T14:23:02.600Z,27.63
2023-05-03T14:25:31.561Z,27.58
2023-05-03T14:28:01.654Z,27.51
2023-05-03T14:30:29.584Z,27.35
2023-05-03T14:32:57.078Z,27.24
2023-05-03T14:35:25.154Z,27.15
2023-05-03T14:37:52.956Z,27.06
2023-05-03T14:40:21.057Z,26.83
2023-05-03T14:42:49.125Z,26.63
2023-05-03T14:45:17.556Z,26.71
2023-05-03T14:47:45.345Z,26.60
2023-05-03T14:50:13.264Z,26.58
2023-05-03T14:52:41.139Z,26.56
2023-05-03T14:55:09.424Z,26.60
2023-05-03T14:57:38.617Z,26.60
2023-05-03T15:00:14.494Z,26.44
2023-05-03T15:02:43.324Z,26.45
2023-05-03T15:05:14.180Z,26.44
2023-05-03T15:07:41.787Z,26.38
2023-05-03T15:10:10.231Z,26.31
2023-05-03T15:12:39.337Z,26.15
2023-05-03T15:15:10.096Z,26.13
2023-05-03T15:17:37.957Z,25.96
2023-05-03T15:20:07.915Z,25.84
2023-05-03T15:22:36.876Z,25.71
2023-05-03T15:25:04.849Z,25.60
2023-05-03T15:27:32.753Z,25.50
2023-05-03T15:30:00.634Z,25.34
2023-05-03T15:32:28.547Z,25.18
2023-05-03T15:34:56.401Z,25.02
2023-05-03T15:37:24.369Z,24.84
2023-05-03T15:39:51.660Z,24.66
2023-05-03T15:42:19.621Z,24.48
2023-05-03T15:44:49.820Z,24.26
2023-05-03T15:47:17.563Z,24.11
2023-05-03T15:49:45.469Z,23.94
2023-05-03T15:52:13.433Z,23.78
2023-05-03T15:54:41.810Z,23.66
2023-05-03T15:57:09.654Z,23.51
2023-05-03T15:59:38.488Z,23.35
2023-05-03T16:02:14.893Z,23.19
2023-05-03T16:04:43.284Z,23.01
2023-05-03T16:07:12.258Z,22.83
2023-05-03T16:09:39.704Z,22.71
2023-05-03T16:12:08.818Z,22.55
2023-05-03T16:14:36.635Z,22.40
2023-05-03T16:17:04.323Z,22.26
2023-05-03T16:19:32.276Z,22.13
2023-05-03T16:22:00.383Z,22.00
2023-05-03T16:24:29.166Z,21.88
2023-05-03T16:26:57.050Z,21.77
2023-05-03T16:29:26.360Z,21.66
2023-05-03T16:31:53.915Z,21.56
2023-05-03T16:34:21.761Z,21.47
2023-05-03T16:36:49.363Z,21.35
2023-05-03T16:39:17.171Z,21.26
2023-05-03T16:41:49.179Z,21.15
2023-05-03T16:44:19.265Z,21.01
2023-05-03T16:46:48.240Z,20.89
2023-05-03T16:49:15.663Z,20.80
2023-05-03T16:51:43.639Z,20.70
2023-05-03T16:54:12.875Z,20.59
2023-05-03T16:56:40.242Z,20.49
2023-05-03T16:59:08.110Z,20.36
2023-05-03T17:01:35.771Z,20.28
2023-05-03T17:04:04.885Z,20.13
2023-05-03T17:06:33.897Z,20.00
2023-05-03T17:09:02.044Z,19.87
2023-05-03T17:11:30.268Z,19.72
2023-05-03T17:14:01.535Z,19.55
2023-05-03T17:16:29.077Z,19.37
2023-05-03T17:18:58.182Z,19.19
2023-05-03T17:21:25.696Z,19.00
2023-05-03T17:23:53.348Z,18.83
2023-05-03T17:26:22.580Z,18.64
2023-05-03T17:28:50.345Z,18.49
2023-05-03T17:31:17.753Z,18.36
2023-05-03T17:33:45.225Z,18.28
2023-05-03T17:36:12.964Z,18.21
2023-05-03T17:38:40.554Z,18.16
2023-05-03T17:41:09.500Z,18.10
2023-05-03T17:43:38.070Z,18.00
2023-05-03T17:46:14.976Z,17.76
2023-05-03T17:48:44.460Z,17.76
2023-05-03T17:51:17.639Z,17.68
2023-05-03T17:53:45.309Z,17.63
2023-05-03T17:56:17.561Z,17.60
2023-05-03T17:58:45.937Z,17.45
2023-05-03T18:01:13.905Z,17.28
2023-05-03T18:03:42.269Z,17.24
2023-05-03T18:06:11.725Z,17.15
2023-05-03T18:08:39.325Z,17.09
2023-05-03T18:11:07.578Z,16.91
2023-05-03T18:13:35.228Z,16.81
2023-05-03T18:16:09.099Z,16.66
2023-05-03T18:18:36.693Z,16.53
2023-05-03T18:21:05.108Z,16.57
2023-05-03T18:23:33.154Z,16.50
2023-05-03T18:26:01.069Z,16.33
2023-05-03T18:28:28.717Z,16.30
2023-05-03T18:30:56.280Z,16.04
2023-05-03T18:33:23.993Z,15.97
2023-05-03T18:35:53.372Z,15.99
2023-05-03T18:38:21.924Z,15.87
2023-05-03T18:40:50.360Z,15.71
2023-05-03T18:43:18.215Z,15.72
2023-05-03T18:45:45.533Z,15.62
2023-05-03T18:48:14.714Z,15.49
2023-05-03T18:50:45.447Z,15.39
2023-05-03T18:53:13.256Z,15.10
2023-05-03T18:55:41.978Z,15.14
2023-05-03T18:58:10.779Z,15.08
2023-05-03T19:00:38.276Z,15.04
2023-05-03T19:03:06.762Z,14.86
2023-05-03T19:05:34.432Z,14.80
2023-05-03T19:08:02.143Z,14.77
2023-05-03T19:10:29.608Z,14.71
2023-05-03T19:12:57.731Z,14.62
2023-05-03T19:15:25.474Z,14.46
2023-05-03T19:17:54.692Z,14.43
2023-05-03T19:20:22.695Z,14.25
2023-05-03T19:22:50.243Z,14.25
2023-05-03T19:25:17.873Z,14.28
2023-05-03T19:27:45.422Z,14.22
2023-05-03T19:30:13.115Z,14.02
2023-05-03T19:32:41.109Z,14.03
2023-05-03T19:35:11.769Z,13.81
2023-05-03T19:37:39.285Z,13.67
2023-05-03T19:40:07.912Z,13.80
2023-05-03T19:42:35.341Z,13.66
2023-05-03T19:45:06.548Z,13.53
2023-05-03T19:47:34.096Z,13.55
2023-05-03T19:50:01.878Z,13.52
2023-05-03T19:52:29.553Z,13.36
2023-05-03T19:54:57.913Z,13.40
2023-05-03T19:57:26.008Z,13.30
2023-05-03T19:59:53.377Z,13.25
2023-05-03T20:02:24.162Z,13.19
2023-05-03T20:04:52.671Z,13.12
2023-05-03T20:07:20.136Z,13.12
2023-05-03T20:09:47.509Z,13.16
2023-05-03T20:12:14.769Z,13.07
2023-05-03T20:14:42.366Z,13.08
2023-05-03T20:17:09.841Z,13.04
2023-05-03T20:19:38.365Z,13.00
2023-05-03T20:22:05.640Z,12.98
2023-05-03T20:24:33.046Z,12.98
2023-05-03T20:27:04.218Z,12.88
2023-05-03T20:29:31.794Z,12.83
2023-05-03T20:31:59.347Z,12.72
2023-05-03T20:34:27.406Z,12.67
2023-05-03T20:36:55.039Z,12.59
2023-05-03T20:39:22.396Z,12.47
2023-05-03T20:41:49.943Z,12.35
2023-05-03T20:44:17.262Z,12.25
2023-05-03T20:46:45.694Z,12.16
2023-05-03T20:49:13.807Z,12.06
2023-05-03T20:51:41.298Z,11.94
2023-05-03T20:54:08.834Z,11.80
2023-05-03T20:56:36.178Z,11.77
2023-05-03T20:59:05.251Z,11.76
2023-05-03T21:01:32.820Z,11.71
2023-05-03T21:04:00.779Z,11.71
2023-05-03T21:06:28.400Z,11.71
2023-05-03T21:08:55.875Z,11.71
2023-05-03T21:11:23.361Z,11.65
2023-05-03T21:13:51.423Z,11.59
2023-05-03T21:16:19.134Z,11.51
2023-05-03T21:18:46.999Z,11.41
2023-05-03T21:21:15.643Z,11.37
2023-05-03T21:23:43.069Z,11.27
2023-05-03T21:26:11.047Z,11.23
2023-05-03T21:28:38.343Z,11.21
2023-05-03T21:31:05.869Z,11.18
2023-05-03T21:33:33.525Z,11.09
2023-05-03T21:36:01.151Z,11.00
2023-05-03T21:38:28.800Z,10.92
2023-05-03T21:41:08.782Z,10.82
2023-05-03T21:43:37.279Z,10.71
2023-05-03T21:46:08.788Z,10.63
2023-05-03T21:48:37.817Z,10.52
2023-05-03T21:51:05.494Z,10.42
2023-05-03T21:53:33.524Z,10.32
2023-05-03T21:56:00.870Z,10.24
2023-05-03T21:58:28.420Z,10.18
2023-05-03T22:00:55.907Z,10.11
2023-05-03T22:03:23.434Z,10.08
2023-05-03T22:05:51.912Z,10.05
2023-05-03T22:08:19.672Z,10.06
2023-05-03T22:10:47.455Z,10.05
2023-05-03T22:13:15.561Z,10.02
2023-05-03T22:15:42.941Z,10.02
2023-05-03T22:18:10.656Z,10.00
2023-05-03T22:20:37.967Z,9.99
2023-05-03T22:23:05.560Z,9.99
2023-05-03T22:25:33.346Z,9.96
2023-05-03T22:28:01.320Z,9.91
2023-05-03T22:30:29.336Z,9.86
2023-05-03T22:32:57.041Z,9.81
2023-05-03T22:35:24.649Z,9.74
2023-05-03T22:37:52.415Z,9.62
2023-05-03T22:40:20.491Z,9.50
2023-05-03T22:42:48.033Z,9.39
2023-05-03T22:45:15.938Z,9.28
2023-05-03T22:47:43.966Z,9.16
2023-05-03T22:50:11.734Z,9.08
2023-05-03T22:52:39.235Z,8.98
2023-05-03T22:55:08.304Z,8.90
2023-05-03T22:57:36.107Z,8.82
2023-05-03T23:00:07.116Z,8.81
2023-05-03T23:02:35.022Z,8.79
2023-05-03T23:05:02.881Z,8.77
2023-05-03T23:07:30.545Z,8.77
2023-05-03T23:10:03.580Z,8.72
2023-05-03T23:12:32.405Z,8.69
2023-05-03T23:14:59.922Z,8.68
2023-05-03T23:17:27.943Z,8.66
2023-05-03T23:19:55.653Z,8.67
2023-05-03T23:22:22.798Z,8.69
2023-05-03T23:24:50.307Z,8.70
2023-05-03T23:27:20.248Z,8.75
2023-05-03T23:29:48.463Z,8.80
2023-05-03T23:32:16.553Z,8.87
2023-05-03T23:34:44.457Z,8.92
2023-05-03T23:37:11.788Z,8.99
2023-05-03T23:39:44.487Z,9.04
2023-05-03T23:42:13.306Z,9.08
2023-05-03T23:44:50.823Z,9.17
2023-05-03T23:47:21.281Z,9.22
2023-05-03T23:49:48.923Z,9.28
2023-05-03T23:52:19.231Z,9.35
2023-05-03T23:54:46.862Z,9.37
2023-05-03T23:57:14.275Z,9.41
2023-05-03T23:59:42.137Z,9.44
